createdAt,value
2018-05-02T00:00:58.150Z,64.68
2018-05-02T00:01:58.020Z,63.73
2018-05-02T00:02:57.900Z,63.17
2018-05-02T00:03:57.767Z,62.69
2018-05-02T00:04:57.638Z,62.78
2018-05-02T00:05:57.515Z,62.78
2018-05-02T00:06:57.381Z,63.26
2018-05-02T00:07:57.253Z,64.30
2018-05-02T00:08:57.125Z,64.30
2018-05-02T00:09:57.000Z,65.34
2018-05-02T00:10:56.870Z,64.59
2018-05-02T00:11:56.744Z,65.44
2018-05-02T00:12:56.618Z,63.82
2018-05-02T00:13:56.490Z,64.11
2018-05-02T00:14:56.364Z,63.82
2018-05-02T00:15:56.235Z,62.59
2018-05-02T00:16:56.112Z,62.69
2018-05-02T00:17:55.981Z,62.02
2018-05-02T00:18:55.854Z,61.27
2018-05-02T00:19:55.723Z,61.36
2018-05-02T00:20:55.597Z,60.98
2018-05-02T00:21:55.494Z,61.36
2018-05-02T00:22:55.338Z,60.98
2018-05-02T00:23:55.213Z,61.55
2018-05-02T00:24:55.084Z,62.69
2018-05-02T00:25:54.955Z,62.88
2018-05-02T00:26:54.831Z,63.07
2018-05-02T00:27:54.701Z,63.45
2018-05-02T00:28:54.574Z,65.16
2018-05-02T00:29:54.447Z,65.53
2018-05-02T00:30:54.321Z,64.68
2018-05-02T00:31:54.192Z,65.25
2018-05-02T00:32:54.063Z,65.25
2018-05-02T00:33:53.936Z,65.34
2018-05-02T00:34:53.816Z,65.82
2018-05-02T00:35:53.680Z,66.10
2018-05-02T00:36:53.555Z,66.29
2018-05-02T00:37:53.423Z,66.01
2018-05-02T00:38:53.295Z,66.77
2018-05-02T00:39:53.173Z,67.62
2018-05-02T00:40:53.043Z,67.90
2018-05-02T00:41:52.916Z,69.23
2018-05-02T00:42:52.785Z,69.61
2018-05-02T00:43:52.658Z,69.90
2018-05-02T00:44:52.532Z,70.28
2018-05-02T00:45:52.404Z,70.12
2018-05-02T00:46:52.279Z,70.12
2018-05-02T00:47:52.154Z,70.59
2018-05-02T00:48:52.024Z,70.98
2018-05-02T00:49:51.894Z,71.26
2018-05-02T00:50:51.772Z,73.07
2018-05-02T00:51:51.642Z,73.07
2018-05-02T00:52:51.515Z,73.82
2018-05-02T00:53:51.386Z,74.39
2018-05-02T00:54:51.260Z,74.58
2018-05-02T00:55:51.132Z,74.49
2018-05-02T00:56:51.011Z,74.39
2018-05-02T00:57:50.876Z,74.77
2018-05-02T00:58:50.751Z,73.72
2018-05-02T00:59:50.624Z,74.39
2018-05-02T01:00:50.496Z,73.92
2018-05-02T01:01:50.368Z,74.39
2018-05-02T01:02:50.242Z,74.01
2018-05-02T01:03:50.114Z,73.63
2018-05-02T01:04:49.989Z,74.11
2018-05-02T01:05:49.861Z,74.01
2018-05-02T01:06:49.732Z,73.07
2018-05-02T01:07:49.610Z,73.25
2018-05-02T01:08:49.479Z,72.88
2018-05-02T01:09:49.353Z,71.73
2018-05-02T01:10:49.225Z,69.42
2018-05-02T01:11:49.097Z,69.13
2018-05-02T01:12:48.970Z,68.66
2018-05-02T01:13:48.844Z,68.00
2018-05-02T01:14:48.720Z,67.62
2018-05-02T01:15:48.591Z,67.43
2018-05-02T01:16:48.464Z,67.43
2018-05-02T01:17:48.340Z,68.29
2018-05-02T01:18:48.207Z,69.23
2018-05-02T01:19:48.085Z,68.57
2018-05-02T01:20:47.958Z,69.23
2018-05-02T01:21:47.830Z,69.33
2018-05-02T01:22:47.701Z,68.48
2018-05-02T01:23:47.575Z,70.47
2018-05-02T01:24:47.446Z,71.41
2018-05-02T01:25:47.324Z,72.17
2018-05-02T01:26:47.197Z,71.80
2018-05-02T01:27:47.065Z,71.60
2018-05-02T01:28:46.938Z,71.70
2018-05-02T01:29:46.809Z,72.30
2018-05-02T01:30:46.684Z,73.16
2018-05-02T01:31:46.560Z,71.55
2018-05-02T01:32:46.430Z,72.02
2018-05-02T01:33:46.306Z,71.83
2018-05-02T01:34:46.177Z,72.78
2018-05-02T01:35:46.056Z,73.16
2018-05-02T01:36:45.924Z,74.11
2018-05-02T01:37:45.795Z,76.57
2018-05-02T01:38:45.668Z,77.24
2018-05-02T01:39:45.543Z,77.14
2018-05-02T01:40:45.413Z,77.33
2018-05-02T01:41:45.290Z,76.48
2018-05-02T01:42:45.160Z,76.48
2018-05-02T01:43:45.033Z,75.24
2018-05-02T01:44:44.908Z,74.20
2018-05-02T01:45:44.779Z,75.15
2018-05-02T01:46:44.652Z,75.05
2018-05-02T01:47:44.526Z,75.34
2018-05-02T01:48:44.400Z,75.43
2018-05-02T01:49:44.274Z,75.72
2018-05-02T01:50:44.145Z,76.01
2018-05-02T01:51:44.016Z,76.57
2018-05-02T01:52:43.891Z,76.67
2018-05-02T01:53:43.763Z,76.01
2018-05-02T01:54:43.638Z,77.05
2018-05-02T01:55:43.508Z,77.24
2018-05-02T01:56:43.380Z,76.29
2018-05-02T01:57:43.255Z,76.67
2018-05-02T01:58:43.126Z,77.33
2018-05-02T01:59:43.001Z,76.67
2018-05-02T02:00:42.875Z,73.92
2018-05-02T02:01:42.748Z,70.94
2018-05-02T02:02:42.619Z,68.10
2018-05-02T02:03:42.492Z,65.91
2018-05-02T02:04:42.366Z,64.49
2018-05-02T02:05:42.235Z,62.40
2018-05-02T02:06:42.109Z,60.70
2018-05-02T02:07:41.981Z,60.13
2018-05-02T02:08:41.854Z,58.86
2018-05-02T02:09:41.729Z,59.34
2018-05-02T02:10:41.599Z,59.25
2018-05-02T02:11:41.474Z,58.48
2018-05-02T02:12:41.346Z,58.39
2018-05-02T02:13:41.219Z,58.96
2018-05-02T02:14:41.093Z,59.84
2018-05-02T02:15:40.965Z,59.37
2018-05-02T02:16:40.835Z,58.80
2018-05-02T02:17:40.709Z,58.70
2018-05-02T02:18:40.582Z,59.18
2018-05-02T02:19:40.457Z,60.60
2018-05-02T02:20:40.326Z,61.93
2018-05-02T02:21:40.196Z,62.50
2018-05-02T02:22:40.071Z,62.50
2018-05-02T02:23:39.943Z,62.69
2018-05-02T02:24:39.817Z,63.35
2018-05-02T02:25:39.686Z,64.49
2018-05-02T02:26:39.561Z,65.91
2018-05-02T02:27:39.432Z,66.67
2018-05-02T02:28:39.305Z,66.29
2018-05-02T02:29:39.177Z,65.34
2018-05-02T02:30:39.049Z,64.87
2018-05-02T02:31:38.925Z,64.40
2018-05-02T02:32:38.802Z,66.48
2018-05-02T02:33:38.669Z,66.86
2018-05-02T02:34:38.540Z,66.67
2018-05-02T02:35:38.414Z,66.58
2018-05-02T02:36:38.288Z,67.81
2018-05-02T02:37:38.156Z,68.00
2018-05-02T02:38:38.032Z,68.38
2018-05-02T02:39:37.907Z,69.04
2018-05-02T02:40:37.776Z,70.84
2018-05-02T02:41:37.647Z,71.22
2018-05-02T02:42:37.521Z,71.13
2018-05-02T02:43:37.396Z,71.51
2018-05-02T02:44:37.266Z,72.93
2018-05-02T02:45:37.139Z,72.45
2018-05-02T02:46:37.014Z,70.28
2018-05-02T02:47:36.882Z,65.63
2018-05-02T02:48:36.761Z,64.87
2018-05-02T02:49:36.636Z,66.20
2018-05-02T02:50:36.505Z,67.14
2018-05-02T02:51:36.377Z,69.04
2018-05-02T02:52:36.258Z,70.84
2018-05-02T02:53:36.122Z,70.09
2018-05-02T02:54:35.992Z,70.37
2018-05-02T02:55:35.864Z,71.03
2018-05-02T02:56:35.739Z,70.84
2018-05-02T02:57:35.613Z,70.94
2018-05-02T02:58:35.483Z,71.70
2018-05-02T02:59:35.358Z,72.08
2018-05-02T03:00:35.229Z,71.70
2018-05-02T03:01:35.102Z,70.56
2018-05-02T03:02:34.978Z,70.28
2018-05-02T03:03:34.846Z,72.17
2018-05-02T03:04:34.720Z,72.64
2018-05-02T03:05:34.591Z,73.31
2018-05-02T03:06:34.467Z,73.60
2018-05-02T03:07:34.337Z,74.07
2018-05-02T03:08:34.213Z,74.01
2018-05-02T03:09:34.082Z,73.07
2018-05-02T03:10:33.958Z,73.25
2018-05-02T03:11:33.833Z,74.01
2018-05-02T03:12:33.704Z,75.24
2018-05-02T03:13:33.576Z,75.43
2018-05-02T03:14:33.452Z,76.29
2018-05-02T03:15:33.322Z,77.24
2018-05-02T03:16:33.198Z,76.57
2018-05-02T03:17:33.067Z,75.91
2018-05-02T03:18:32.940Z,76.29
2018-05-02T03:19:32.813Z,76.67
2018-05-02T03:20:32.685Z,75.72
2018-05-02T03:21:32.562Z,75.62
2018-05-02T03:22:32.432Z,75.53
2018-05-02T03:23:32.307Z,75.53
2018-05-02T03:24:32.179Z,74.87
2018-05-02T03:25:32.047Z,73.72
2018-05-02T03:26:31.923Z,74.96
2018-05-02T03:27:31.795Z,75.11
2018-05-02T03:28:31.667Z,75.11
2018-05-02T03:29:31.542Z,74.58
2018-05-02T03:30:31.412Z,75.05
2018-05-02T03:31:31.288Z,74.83
2018-05-02T03:32:31.159Z,74.64
2018-05-02T03:33:31.031Z,74.49
2018-05-02T03:34:30.904Z,74.30
2018-05-02T03:35:30.776Z,74.30
2018-05-02T03:36:30.651Z,74.77
2018-05-02T03:37:30.522Z,75.24
2018-05-02T03:38:30.394Z,75.05
2018-05-02T03:39:30.271Z,75.15
2018-05-02T03:40:30.141Z,74.16
2018-05-02T03:41:30.018Z,75.78
2018-05-02T03:42:29.889Z,74.26
2018-05-02T03:43:29.760Z,73.31
2018-05-02T03:44:29.633Z,72.45
2018-05-02T03:45:29.505Z,71.70
2018-05-02T03:46:29.377Z,71.60
2018-05-02T03:47:29.251Z,71.41
2018-05-02T03:48:29.123Z,71.60
2018-05-02T03:49:28.995Z,72.55
2018-05-02T03:50:28.868Z,73.03
2018-05-02T03:51:28.744Z,72.84
2018-05-02T03:52:28.615Z,73.69
2018-05-02T03:53:28.489Z,74.07
2018-05-02T03:54:28.361Z,74.83
2018-05-02T03:55:28.235Z,74.64
2018-05-02T03:56:28.107Z,73.88
2018-05-02T03:57:27.979Z,73.12
2018-05-02T03:58:27.855Z,71.22
2018-05-02T03:59:27.726Z,71.70
2018-05-02T04:00:27.601Z,71.41
2018-05-02T04:01:27.474Z,71.41
2018-05-02T04:02:27.348Z,69.99
2018-05-02T04:03:27.219Z,70.09
2018-05-02T04:04:27.092Z,69.80
2018-05-02T04:05:26.969Z,70.28
2018-05-02T04:06:26.838Z,70.94
2018-05-02T04:07:26.710Z,73.12
2018-05-02T04:08:26.584Z,72.74
2018-05-02T04:09:26.458Z,72.36
2018-05-02T04:10:26.329Z,72.08
2018-05-02T04:11:26.202Z,72.17
2018-05-02T04:12:26.074Z,72.45
2018-05-02T04:13:25.948Z,71.51
2018-05-02T04:14:25.823Z,69.90
2018-05-02T04:15:25.694Z,70.09
2018-05-02T04:16:25.567Z,70.28
2018-05-02T04:17:25.438Z,70.18
2018-05-02T04:18:25.311Z,68.95
2018-05-02T04:19:25.187Z,68.66
2018-05-02T04:20:25.057Z,68.19
2018-05-02T04:21:24.931Z,68.10
2018-05-02T04:22:24.802Z,66.86
2018-05-02T04:23:24.675Z,66.39
2018-05-02T04:24:24.550Z,66.10
2018-05-02T04:25:24.422Z,67.43
2018-05-02T04:26:24.294Z,67.71
2018-05-02T04:27:24.171Z,67.81
2018-05-02T04:28:24.045Z,69.33
2018-05-02T04:29:23.912Z,70.65
2018-05-02T04:30:23.784Z,71.03
2018-05-02T04:31:23.661Z,70.47
2018-05-02T04:32:23.534Z,72.36
2018-05-02T04:33:23.405Z,72.08
2018-05-02T04:34:23.276Z,71.41
2018-05-02T04:35:23.150Z,72.36
2018-05-02T04:36:23.022Z,73.03
2018-05-02T04:37:22.894Z,73.50
2018-05-02T04:38:22.766Z,73.88
2018-05-02T04:39:22.641Z,75.21
2018-05-02T04:40:22.516Z,74.92
2018-05-02T04:41:22.389Z,75.21
2018-05-02T04:42:22.306Z,75.31
2018-05-02T04:43:22.131Z,75.87
2018-05-02T04:44:22.003Z,76.06
2018-05-02T04:45:21.876Z,76.67
2018-05-02T04:46:21.750Z,77.33
2018-05-02T04:47:21.623Z,78.47
2018-05-02T04:48:21.496Z,75.72
2018-05-02T04:49:21.367Z,75.15
2018-05-02T04:50:21.241Z,75.02
2018-05-02T04:51:21.120Z,74.30
2018-05-02T04:52:20.987Z,73.92
2018-05-02T04:53:20.859Z,75.15
2018-05-02T04:54:20.734Z,74.96
2018-05-02T04:55:20.690Z,76.20
2018-05-02T04:56:20.479Z,76.29
2018-05-02T04:57:20.350Z,75.15
2018-05-02T04:58:20.223Z,74.77
2018-05-02T04:59:20.099Z,75.72
2018-05-02T05:00:19.973Z,76.29
2018-05-02T05:01:19.846Z,76.67
2018-05-02T05:02:19.718Z,77.33
2018-05-02T05:03:19.588Z,76.67
2018-05-02T05:04:19.464Z,77.33
2018-05-02T05:05:19.335Z,77.14
2018-05-02T05:06:19.209Z,78.66
2018-05-02T05:07:19.083Z,79.14
2018-05-02T05:08:18.956Z,79.90
2018-05-02T05:09:18.829Z,80.56
2018-05-02T05:10:18.700Z,79.04
2018-05-02T05:11:18.573Z,78.85
2018-05-02T05:12:18.460Z,79.90
2018-05-02T05:13:18.321Z,77.24
2018-05-02T05:14:18.194Z,75.62
2018-05-02T05:15:18.068Z,74.87
2018-05-02T05:16:17.938Z,73.54
2018-05-02T05:17:17.815Z,73.82
2018-05-02T05:18:17.683Z,72.40
2018-05-02T05:19:17.556Z,72.30
2018-05-02T05:20:17.432Z,73.82
2018-05-02T05:21:17.302Z,73.54
2018-05-02T05:22:17.176Z,73.92
2018-05-02T05:23:17.049Z,74.49
2018-05-02T05:24:16.922Z,73.72
2018-05-02T05:25:16.796Z,74.11
2018-05-02T05:26:16.667Z,74.01
2018-05-02T05:27:16.540Z,74.30
2018-05-02T05:28:16.445Z,75.15
2018-05-02T05:29:16.287Z,75.62
2018-05-02T05:30:16.161Z,76.01
2018-05-02T05:31:16.032Z,76.01
2018-05-02T05:32:15.907Z,76.29
2018-05-02T05:33:15.778Z,76.20
2018-05-02T05:34:15.652Z,77.24
2018-05-02T05:35:15.633Z,79.23
2018-05-02T05:36:15.404Z,80.13
2018-05-02T05:37:15.270Z,81.07
2018-05-02T05:38:15.145Z,82.31
2018-05-02T05:39:15.017Z,81.84
2018-05-02T05:40:14.891Z,80.88
2018-05-02T05:41:14.761Z,82.12
2018-05-02T05:42:14.637Z,77.56
2018-05-02T05:43:14.511Z,77.14
2018-05-02T05:44:14.384Z,78.89
2018-05-02T05:45:14.256Z,78.32
2018-05-02T05:46:14.130Z,75.62
2018-05-02T05:47:14.002Z,75.47
2018-05-02T05:48:13.875Z,75.38
2018-05-02T05:49:13.755Z,78.03
2018-05-02T05:50:13.622Z,78.03
2018-05-02T05:51:13.498Z,78.03
2018-05-02T05:52:13.369Z,78.80
2018-05-02T05:53:13.243Z,78.61
2018-05-02T05:54:13.216Z,78.70
2018-05-02T05:55:12.987Z,79.36
2018-05-02T05:56:12.860Z,78.23
2018-05-02T05:57:12.733Z,77.66
2018-05-02T05:58:12.609Z,78.89
2018-05-02T05:59:12.484Z,79.46
2018-05-02T06:00:12.354Z,78.19
2018-05-02T06:01:12.226Z,77.75
2018-05-02T06:02:12.101Z,79.46
2018-05-02T06:03:11.973Z,77.18
2018-05-02T06:04:11.847Z,75.76
2018-05-02T06:05:11.784Z,77.47
2018-05-02T06:06:11.593Z,76.04
2018-05-02T06:07:11.466Z,79.84
2018-05-02T06:08:11.340Z,79.33
2018-05-02T06:09:11.212Z,80.75
2018-05-02T06:10:11.090Z,82.50
2018-05-02T06:11:10.958Z,81.84
2018-05-02T06:12:10.833Z,84.40
2018-05-02T06:13:10.706Z,84.49
2018-05-02T06:14:10.580Z,84.21
2018-05-02T06:15:10.452Z,87.34
2018-05-02T06:16:10.329Z,90.66
2018-05-02T06:17:10.198Z,92.28
2018-05-02T06:18:10.073Z,91.99
2018-05-02T06:19:09.947Z,90.00
2018-05-02T06:20:09.817Z,89.53
2018-05-02T06:21:09.691Z,90.19
2018-05-02T06:22:09.567Z,88.76
2018-05-02T06:23:09.440Z,90.09
2018-05-02T06:24:09.314Z,94.37
2018-05-02T06:25:09.188Z,91.99
2018-05-02T06:26:09.097Z,90.00
2018-05-02T06:27:08.935Z,91.52
2018-05-02T06:28:08.809Z,88.29
2018-05-02T06:29:08.684Z,82.59
2018-05-02T06:30:08.558Z,81.93
2018-05-02T06:31:08.429Z,82.97
2018-05-02T06:32:08.305Z,82.97
2018-05-02T06:33:08.182Z,82.21
2018-05-02T06:34:08.049Z,83.45
2018-05-02T06:35:07.925Z,83.26
2018-05-02T06:36:07.801Z,83.36
2018-05-02T06:37:07.673Z,81.84
2018-05-02T06:38:07.546Z,82.31
2018-05-02T06:39:07.420Z,81.45
2018-05-02T06:40:07.295Z,78.61
2018-05-02T06:41:07.166Z,79.08
2018-05-02T06:42:07.047Z,81.36
2018-05-02T06:43:06.913Z,80.32
2018-05-02T06:44:06.787Z,79.17
2018-05-02T06:45:06.659Z,78.99
2018-05-02T06:46:06.533Z,77.47
2018-05-02T06:47:06.408Z,78.99
2018-05-02T06:48:06.282Z,81.45
2018-05-02T06:49:06.155Z,81.17
2018-05-02T06:50:06.028Z,82.12
2018-05-02T06:51:05.904Z,83.83
2018-05-02T06:52:05.777Z,82.12
2018-05-02T06:53:05.649Z,79.88
2018-05-02T06:54:05.523Z,81.40
2018-05-02T06:55:05.395Z,84.40
2018-05-02T06:56:05.275Z,83.07
2018-05-02T06:57:05.146Z,82.54
2018-05-02T06:58:05.016Z,80.93
2018-05-02T06:59:04.890Z,82.92
2018-05-02T07:00:04.769Z,85.68
2018-05-02T07:01:04.637Z,86.15
2018-05-02T07:02:04.514Z,85.01
2018-05-02T07:03:04.385Z,88.53
2018-05-02T07:04:04.260Z,89.00
2018-05-02T07:05:04.134Z,91.19
2018-05-02T07:06:04.011Z,87.48
2018-05-02T07:07:03.930Z,85.30
2018-05-02T07:08:03.758Z,87.76
2018-05-02T07:09:03.632Z,88.81
2018-05-02T07:10:03.504Z,88.90
2018-05-02T07:11:03.379Z,88.62
2018-05-02T07:12:03.249Z,89.38
2018-05-02T07:13:03.123Z,91.19
2018-05-02T07:14:02.999Z,90.61
2018-05-02T07:15:02.872Z,89.42
2018-05-02T07:16:02.748Z,92.23
2018-05-02T07:17:02.621Z,91.61
2018-05-02T07:18:02.497Z,91.42
2018-05-02T07:19:02.373Z,93.41
2018-05-02T07:20:02.245Z,92.56
2018-05-02T07:21:02.123Z,93.79
2018-05-02T07:22:01.992Z,93.51
2018-05-02T07:23:01.869Z,93.32
2018-05-02T07:24:01.770Z,95.03
2018-05-02T07:25:01.615Z,95.03
2018-05-02T07:26:01.488Z,94.84
2018-05-02T07:27:01.364Z,95.12
2018-05-02T07:28:01.239Z,95.41
2018-05-02T07:29:01.112Z,95.51
2018-05-02T07:30:00.985Z,94.46
2018-05-02T07:31:00.860Z,94.27
2018-05-02T07:32:00.738Z,93.04
2018-05-02T07:33:00.671Z,94.08
2018-05-02T07:34:00.484Z,95.98
2018-05-02T07:35:00.358Z,97.17
2018-05-02T07:36:00.233Z,97.93
2018-05-02T07:37:00.108Z,95.70
2018-05-02T07:37:59.982Z,96.31
2018-05-02T07:38:59.856Z,97.83
2018-05-02T07:39:59.732Z,97.55
2018-05-02T07:40:59.605Z,97.74
2018-05-02T07:41:59.481Z,98.03
2018-05-02T07:42:59.360Z,97.27
2018-05-02T07:43:59.230Z,97.93
2018-05-02T07:44:59.106Z,95.84
2018-05-02T07:45:58.979Z,95.17
2018-05-02T07:46:58.853Z,97.45
2018-05-02T07:47:58.730Z,97.83
2018-05-02T07:48:58.606Z,98.03
2018-05-02T07:49:58.477Z,96.98
2018-05-02T07:50:58.352Z,97.93
2018-05-02T07:51:58.229Z,98.12
2018-05-02T07:52:58.103Z,97.36
2018-05-02T07:53:57.979Z,98.97
2018-05-02T07:54:57.851Z,98.97
2018-05-02T07:55:57.739Z,99.84
2018-05-02T07:56:57.614Z,98.27
2018-05-02T07:57:57.490Z,99.99
2018-05-02T07:58:57.354Z,97.03
2018-05-02T07:59:57.230Z,97.50
2018-05-02T08:00:57.101Z,98.36
2018-05-02T08:01:56.979Z,99.12
2018-05-02T08:02:56.854Z,99.99
2018-05-02T08:03:56.731Z,99.02
2018-05-02T08:04:56.606Z,98.27
2018-05-02T08:05:56.478Z,99.99
2018-05-02T08:06:56.357Z,99.99
2018-05-02T08:07:56.233Z,98.83
2018-05-02T08:08:56.104Z,98.46
2018-05-02T08:09:55.981Z,99.12
2018-05-02T08:10:55.871Z,97.79
2018-05-02T08:11:55.734Z,99.79
2018-05-02T08:12:55.608Z,99.50
2018-05-02T08:13:55.485Z,99.41
2018-05-02T08:14:55.361Z,99.99
2018-05-02T08:15:55.237Z,99.50
2018-05-02T08:16:55.110Z,99.31
2018-05-02T08:17:54.987Z,99.12
2018-05-02T08:18:54.860Z,99.31
2018-05-02T08:19:54.739Z,99.31
2018-05-02T08:20:54.619Z,99.69
2018-05-02T08:21:54.487Z,99.88
2018-05-02T08:22:54.363Z,99.22
2018-05-02T08:23:54.240Z,99.60
2018-05-02T08:24:54.119Z,99.46
2018-05-02T08:25:53.991Z,98.79
2018-05-02T08:26:53.866Z,99.99
2018-05-02T08:27:53.742Z,99.79
2018-05-02T08:28:53.618Z,99.22
2018-05-02T08:29:53.492Z,99.02
2018-05-02T08:30:53.370Z,99.99
2018-05-02T08:31:53.246Z,99.99
2018-05-02T08:32:53.182Z,99.12
2018-05-02T08:33:52.996Z,99.99
2018-05-02T08:34:52.872Z,98.32
2018-05-02T08:35:52.747Z,99.99
2018-05-02T08:36:52.622Z,99.99
2018-05-02T08:37:52.498Z,98.88
2018-05-02T08:38:52.449Z,99.99
2018-05-02T08:39:52.253Z,99.99
2018-05-02T08:40:52.126Z,99.65
2018-05-02T08:41:52.003Z,98.22
2018-05-02T08:42:51.878Z,99.99
2018-05-02T08:43:51.753Z,99.55
2018-05-02T08:44:51.629Z,97.70
2018-05-02T08:45:51.505Z,99.99
2018-05-02T08:46:51.381Z,98.13
2018-05-02T08:47:51.261Z,99.99
2018-05-02T08:48:51.138Z,99.98
2018-05-02T08:49:51.034Z,99.79
2018-05-02T08:50:50.886Z,99.69
2018-05-02T08:51:50.768Z,98.60
2018-05-02T08:52:50.639Z,99.99
2018-05-02T08:53:50.517Z,99.65
2018-05-02T08:54:50.391Z,98.88
2018-05-02T08:55:50.268Z,99.22
2018-05-02T08:56:50.142Z,99.89
2018-05-02T08:57:50.025Z,99.99
2018-05-02T08:58:49.897Z,99.13
2018-05-02T08:59:49.773Z,98.84
2018-05-02T09:00:49.657Z,98.94
2018-05-02T09:01:49.527Z,98.94
2018-05-02T09:02:49.400Z,99.74
2018-05-02T09:03:49.338Z,98.79
2018-05-02T09:04:49.165Z,98.98
2018-05-02T09:05:49.034Z,98.88
2018-05-02T09:06:48.907Z,98.69
2018-05-02T09:07:48.782Z,99.99
2018-05-02T09:08:48.696Z,99.46
2018-05-02T09:09:48.532Z,99.79
2018-05-02T09:10:48.411Z,99.46
2018-05-02T09:11:48.284Z,99.27
2018-05-02T09:12:48.163Z,99.84
2018-05-02T09:13:48.036Z,99.99
2018-05-02T09:14:47.914Z,99.65
2018-05-02T09:15:47.789Z,97.84
2018-05-02T09:16:47.666Z,98.17
2018-05-02T09:17:47.541Z,98.32
2018-05-02T09:18:47.416Z,97.74
2018-05-02T09:19:47.296Z,99.46
2018-05-02T09:20:47.166Z,98.32
2018-05-02T09:21:47.043Z,99.46
2018-05-02T09:22:46.917Z,96.41
2018-05-02T09:23:46.795Z,96.08
2018-05-02T09:24:46.669Z,97.93
2018-05-02T09:25:46.633Z,97.46
2018-05-02T09:26:46.421Z,97.08
2018-05-02T09:27:46.296Z,96.31
2018-05-02T09:28:46.175Z,99.99
2018-05-02T09:29:46.052Z,99.17
2018-05-02T09:30:45.925Z,98.50
2018-05-02T09:31:45.800Z,97.27
2018-05-02T09:32:45.674Z,98.41
2018-05-02T09:33:45.552Z,97.08
2018-05-02T09:34:45.427Z,97.17
2018-05-02T09:35:45.381Z,96.12
2018-05-02T09:36:45.181Z,99.46
2018-05-02T09:37:45.056Z,97.55
2018-05-02T09:38:44.931Z,96.03
2018-05-02T09:39:44.807Z,97.17
2018-05-02T09:40:44.685Z,94.13
2018-05-02T09:41:44.562Z,95.84
2018-05-02T09:42:44.438Z,94.42
2018-05-02T09:43:44.310Z,96.12
2018-05-02T09:44:44.186Z,97.46
2018-05-02T09:45:44.062Z,96.31
2018-05-02T09:46:43.941Z,97.93
2018-05-02T09:47:43.815Z,96.03
2018-05-02T09:48:43.692Z,95.08
2018-05-02T09:49:43.567Z,97.36
2018-05-02T09:50:43.442Z,96.51
2018-05-02T09:51:43.319Z,93.65
2018-05-02T09:52:43.198Z,93.74
2018-05-02T09:53:43.072Z,98.50
2018-05-02T09:54:42.946Z,91.08
2018-05-02T09:55:42.821Z,93.32
2018-05-02T09:56:42.699Z,99.51
2018-05-02T09:57:42.574Z,98.36
2018-05-02T09:58:42.453Z,98.60
2018-05-02T09:59:42.330Z,99.99
2018-05-02T10:00:42.206Z,98.41
2018-05-02T10:01:42.081Z,99.99
2018-05-02T10:02:41.957Z,99.18
2018-05-02T10:03:41.831Z,98.70
2018-05-02T10:04:41.707Z,99.99
2018-05-02T10:05:41.588Z,98.41
2018-05-02T10:06:41.462Z,98.99
2018-05-02T10:07:41.341Z,98.60
2018-05-02T10:08:41.219Z,97.51
2018-05-02T10:09:41.095Z,99.99
2018-05-02T10:10:40.970Z,98.46
2018-05-02T10:11:40.849Z,98.46
2018-05-02T10:12:40.744Z,99.32
2018-05-02T10:13:40.601Z,99.89
2018-05-02T10:14:40.480Z,98.94
2018-05-02T10:15:40.357Z,98.94
2018-05-02T10:16:40.230Z,97.80
2018-05-02T10:17:40.108Z,99.95
2018-05-02T10:18:39.988Z,99.99
2018-05-02T10:19:39.866Z,98.61
2018-05-02T10:20:39.746Z,96.46
2018-05-02T10:21:39.618Z,97.71
2018-05-02T10:22:39.499Z,98.18
2018-05-02T10:23:39.378Z,98.08
2018-05-02T10:24:39.251Z,97.94
2018-05-02T10:25:39.137Z,98.52
2018-05-02T10:26:39.016Z,95.79
2018-05-02T10:27:38.885Z,95.98
2018-05-02T10:28:38.763Z,95.12
2018-05-02T10:29:38.644Z,99.99
2018-05-02T10:30:38.520Z,97.22
2018-05-02T10:31:38.398Z,98.08
2018-05-02T10:32:38.276Z,97.51
2018-05-02T10:33:38.158Z,96.84
2018-05-02T10:34:38.036Z,97.46
2018-05-02T10:35:37.913Z,97.66
2018-05-02T10:36:37.793Z,96.98
2018-05-02T10:37:37.671Z,98.56
2018-05-02T10:38:37.549Z,95.70
2018-05-02T10:39:37.425Z,98.65
2018-05-02T10:40:37.308Z,98.13
2018-05-02T10:41:37.179Z,97.70
2018-05-02T10:42:37.059Z,96.70
2018-05-02T10:43:36.936Z,99.56
2018-05-02T10:44:36.816Z,97.80
2018-05-02T10:45:36.695Z,97.03
2018-05-02T10:46:36.571Z,98.27
2018-05-02T10:47:36.449Z,96.65
2018-05-02T10:48:36.328Z,98.27
2018-05-02T10:49:36.202Z,98.46
2018-05-02T10:50:36.081Z,98.18
2018-05-02T10:51:35.965Z,96.17
2018-05-02T10:52:35.836Z,99.60
2018-05-02T10:53:35.715Z,99.99
2018-05-02T10:54:35.594Z,97.27
2018-05-02T10:55:35.473Z,98.70
2018-05-02T10:56:35.349Z,99.56
2018-05-02T10:57:35.229Z,96.94
2018-05-02T10:58:35.105Z,99.04
2018-05-02T10:59:34.982Z,97.46
2018-05-02T11:00:34.863Z,96.89
2018-05-02T11:01:34.739Z,97.27
2018-05-02T11:02:34.616Z,96.22
2018-05-02T11:03:34.497Z,99.27
2018-05-02T11:04:34.373Z,95.94
2018-05-02T11:05:34.255Z,96.61
2018-05-02T11:06:34.130Z,98.51
2018-05-02T11:07:34.005Z,98.99
2018-05-02T11:08:33.887Z,98.36
2018-05-02T11:09:33.770Z,96.17
2018-05-02T11:10:33.643Z,96.27
2018-05-02T11:11:33.518Z,99.99
2018-05-02T11:12:33.398Z,99.99
2018-05-02T11:13:33.272Z,98.36
2018-05-02T11:14:33.152Z,98.56
2018-05-02T11:15:33.032Z,95.70
2018-05-02T11:16:32.906Z,97.75
2018-05-02T11:17:32.783Z,98.99
2018-05-02T11:18:32.663Z,98.51
2018-05-02T11:19:32.537Z,97.08
2018-05-02T11:20:32.425Z,96.17
2018-05-02T11:21:32.298Z,99.60
2018-05-02T11:22:32.175Z,99.99
2018-05-02T11:23:32.050Z,98.85
2018-05-02T11:24:31.925Z,97.89
2018-05-02T11:25:31.808Z,90.17
2018-05-02T11:26:31.690Z,92.84
2018-05-02T11:27:31.565Z,96.27
2018-05-02T11:28:31.452Z,92.84
2018-05-02T11:29:31.314Z,91.50
2018-05-02T11:30:31.195Z,91.50
2018-05-02T11:31:31.072Z,90.64
2018-05-02T11:32:30.947Z,91.88
2018-05-02T11:33:30.825Z,91.60
2018-05-02T11:34:30.702Z,90.45
2018-05-02T11:35:30.583Z,87.98
2018-05-02T11:36:30.455Z,97.51
2018-05-02T11:37:30.334Z,91.31
2018-05-02T11:38:30.213Z,99.99
2018-05-02T11:39:30.091Z,87.27
2018-05-02T11:40:29.970Z,89.84
2018-05-02T11:41:29.844Z,93.55
2018-05-02T11:42:29.723Z,91.08
2018-05-02T11:43:29.599Z,93.74
2018-05-02T11:44:29.475Z,91.17
2018-05-02T11:45:29.355Z,92.55
2018-05-02T11:46:29.232Z,89.03
2018-05-02T11:47:29.110Z,94.46
2018-05-02T11:48:28.983Z,87.03
2018-05-02T11:49:28.864Z,95.12
2018-05-02T11:50:28.739Z,87.79
2018-05-02T11:51:28.619Z,92.46
2018-05-02T11:52:28.491Z,96.55
2018-05-02T11:53:28.371Z,87.98
2018-05-02T11:54:28.245Z,89.70
2018-05-02T11:55:28.125Z,81.98
2018-05-02T11:56:28.001Z,84.84
2018-05-02T11:57:27.874Z,94.37
2018-05-02T11:58:27.754Z,86.46
2018-05-02T11:59:27.629Z,88.46
2018-05-02T12:00:27.506Z,87.03
2018-05-02T12:01:27.380Z,81.89
2018-05-02T12:02:27.258Z,86.32
2018-05-02T12:03:27.151Z,85.08
2018-05-02T12:04:27.012Z,86.69
2018-05-02T12:05:26.887Z,88.36
2018-05-02T12:06:26.763Z,89.17
2018-05-02T12:07:26.640Z,89.50
2018-05-02T12:08:26.515Z,92.46
2018-05-02T12:09:26.392Z,88.45
2018-05-02T12:10:26.353Z,91.79
2018-05-02T12:11:26.144Z,88.45
2018-05-02T12:12:26.021Z,89.03
2018-05-02T12:13:25.903Z,92.55
2018-05-02T12:14:25.780Z,94.08
2018-05-02T12:15:25.655Z,94.46
2018-05-02T12:16:25.531Z,95.51
2018-05-02T12:17:25.406Z,94.74
2018-05-02T12:18:25.290Z,94.93
2018-05-02T12:19:25.161Z,94.27
2018-05-02T12:20:25.038Z,95.89
2018-05-02T12:21:24.922Z,98.18
2018-05-02T12:22:24.790Z,96.84
2018-05-02T12:23:24.669Z,94.93
2018-05-02T12:24:24.547Z,97.56
2018-05-02T12:25:24.427Z,96.70
2018-05-02T12:26:24.301Z,95.84
2018-05-02T12:27:24.176Z,97.22
2018-05-02T12:28:24.054Z,99.99
2018-05-02T12:29:23.934Z,95.84
2018-05-02T12:30:23.810Z,98.22
2018-05-02T12:31:23.689Z,96.75
2018-05-02T12:32:23.564Z,97.71
2018-05-02T12:33:23.443Z,96.56
2018-05-02T12:34:23.325Z,98.85
2018-05-02T12:35:23.270Z,97.71
2018-05-02T12:36:23.112Z,96.41
2018-05-02T12:37:22.956Z,99.99
2018-05-02T12:38:22.833Z,97.08
2018-05-02T12:39:22.711Z,95.56
2018-05-02T12:40:22.590Z,95.75
2018-05-02T12:41:22.467Z,97.46
2018-05-02T12:42:22.363Z,98.22
2018-05-02T12:43:22.225Z,97.56
2018-05-02T12:44:22.106Z,97.27
2018-05-02T12:45:21.981Z,98.13
2018-05-02T12:46:21.858Z,97.51
2018-05-02T12:47:21.736Z,97.75
2018-05-02T12:48:21.612Z,96.84
2018-05-02T12:49:21.493Z,96.32
2018-05-02T12:50:21.368Z,96.61
2018-05-02T12:51:21.245Z,98.42